sensor_id;sensor_type;location;lat;lon;timestamp;P1;durP1;ratioP1;P2;durP2;ratioP2
74320;SDS011;62738;45.772;4.804;2023-08-12T01:02:25;5.40;;;2.13;;
74320;SDS011;62738;45.772;4.804;2023-08-12T01:04:52;4.57;;;2.30;;
74320;SDS011;62738;45.772;4.804;2023-08-12T01:07:19;7.13;;;2.35;;
74320;SDS011;62738;45.772;4.804;2023-08-12T01:09:46;6.80;;;2.33;;
74320;SDS011;62738;45.772;4.804;2023-08-12T01:12:13;5.60;;;2.20;;
74320;SDS011;62738;45.772;4.804;2023-08-12T01:17:37;4.00;;;2.20;;
74320;SDS011;62738;45.772;4.804;2023-08-12T01:20:06;6.47;;;2.38;;
74320;SDS011;62738;45.772;4.804;2023-08-12T01:22:40;5.20;;;2.00;;
74320;SDS011;62738;45.772;4.804;2023-08-12T01:25:10;4.90;;;2.47;;
74320;SDS011;62738;45.772;4.804;2023-08-12T01:27:37;4.60;;;2.17;;
74320;SDS011;62738;45.772;4.804;2023-08-12T01:30:04;7.80;;;2.35;;
74320;SDS011;62738;45.772;4.804;2023-08-12T01:32:41;3.38;;;2.08;;
74320;SDS011;62738;45.772;4.804;2023-08-12T01:35:17;4.90;;;2.40;;
74320;SDS011;62738;45.772;4.804;2023-08-12T01:37:50;6.82;;;2.15;;
74320;SDS011;62738;45.772;4.804;2023-08-12T01:40:19;5.22;;;2.35;;
74320;SDS011;62738;45.772;4.804;2023-08-12T01:42:46;6.50;;;2.50;;
74320;SDS011;62738;45.772;4.804;2023-08-12T01:45:13;5.55;;;2.30;;
74320;SDS011;62738;45.772;4.804;2023-08-12T01:47:42;4.93;;;2.30;;
74320;SDS011;62738;45.772;4.804;2023-08-12T01:50:09;6.25;;;2.25;;
74320;SDS011;62738;45.772;4.804;2023-08-12T01:52:36;5.20;;;2.35;;
74320;SDS011;62738;45.772;4.804;2023-08-12T01:55:03;8.15;;;2.25;;
74320;SDS011;62738;45.772;4.804;2023-08-12T01:57:30;4.63;;;2.20;;
74320;SDS011;62738;45.772;4.804;2023-08-12T01:59:57;7.85;;;2.50;;
74320;SDS011;62738;45.772;4.804;2023-08-12T02:02:24;5.32;;;2.40;;
74320;SDS011;62738;45.772;4.804;2023-08-12T02:04:50;4.68;;;1.95;;
74320;SDS011;62738;45.772;4.804;2023-08-12T02:07:17;4.60;;;2.40;;
74320;SDS011;62738;45.772;4.804;2023-08-12T02:09:43;7.75;;;2.17;;
74320;SDS011;62738;45.772;4.804;2023-08-12T02:12:10;6.50;;;2.50;;
74320;SDS011;62738;45.772;4.804;2023-08-12T02:14:36;4.32;;;2.33;;
74320;SDS011;62738;45.772;4.804;2023-08-12T02:17:03;4.32;;;2.20;;
74320;SDS011;62738;45.772;4.804;2023-08-12T02:19:33;5.68;;;1.88;;
74320;SDS011;62738;45.772;4.804;2023-08-12T02:22:00;8.43;;;2.42;;
74320;SDS011;62738;45.772;4.804;2023-08-12T02:24:28;7.10;;;2.45;;
74320;SDS011;62738;45.772;4.804;2023-08-12T02:26:55;3.88;;;2.28;;
74320;SDS011;62738;45.772;4.804;2023-08-12T02:29:21;4.50;;;2.15;;
74320;SDS011;62738;45.772;4.804;2023-08-12T02:31:48;8.32;;;2.25;;
74320;SDS011;62738;45.772;4.804;2023-08-12T02:34:15;3.15;;;2.15;;
74320;SDS011;62738;45.772;4.804;2023-08-12T02:36:42;6.35;;;2.28;;
74320;SDS011;62738;45.772;4.804;2023-08-12T02:39:08;4.95;;;2.20;;
74320;SDS011;62738;45.772;4.804;2023-08-12T02:41:35;4.20;;;2.28;;
74320;SDS011;62738;45.772;4.804;2023-08-12T02:44:02;5.78;;;2.47;;
74320;SDS011;62738;45.772;4.804;2023-08-12T02:46:29;4.68;;;2.30;;
74320;SDS011;62738;45.772;4.804;2023-08-12T02:48:55;4.05;;;2.20;;
74320;SDS011;62738;45.772;4.804;2023-08-12T02:51:22;5.82;;;2.70;;
74320;SDS011;62738;45.772;4.804;2023-08-12T02:53:49;6.25;;;2.88;;
74320;SDS011;62738;45.772;4.804;2023-08-12T02:56:15;3.78;;;2.10;;
74320;SDS011;62738;45.772;4.804;2023-08-12T02:58:42;4.10;;;2.30;;
74320;SDS011;62738;45.772;4.804;2023-08-12T03:01:08;3.78;;;1.90;;
74320;SDS011;62738;45.772;4.804;2023-08-12T03:03:35;3.85;;;2.08;;
74320;SDS011;62738;45.772;4.804;2023-08-12T03:06:02;3.72;;;2.10;;
74320;SDS011;62738;45.772;4.804;2023-08-12T03:08:28;6.15;;;2.00;;
74320;SDS011;62738;45.772;4.804;2023-08-12T03:10:59;4.70;;;2.20;;
74320;SDS011;62738;45.772;4.804;2023-08-12T03:13:28;5.20;;;2.50;;
74320;SDS011;62738;45.772;4.804;2023-08-12T03:15:56;4.72;;;2.17;;
74320;SDS011;62738;45.772;4.804;2023-08-12T03:18:22;6.70;;;2.10;;
74320;SDS011;62738;45.772;4.804;2023-08-12T03:20:49;4.28;;;2.28;;
74320;SDS011;62738;45.772;4.804;2023-08-12T03:23:16;7.22;;;2.53;;
74320;SDS011;62738;45.772;4.804;2023-08-12T03:25:43;4.38;;;2.35;;
74320;SDS011;62738;45.772;4.804;2023-08-12T03:28:09;4.60;;;2.20;;
74320;SDS011;62738;45.772;4.804;2023-08-12T03:30:36;6.45;;;2.53;;
74320;SDS011;62738;45.772;4.804;2023-08-12T03:33:03;5.70;;;2.10;;
74320;SDS011;62738;45.772;4.804;2023-08-12T03:35:30;6.88;;;2.42;;
74320;SDS011;62738;45.772;4.804;2023-08-12T03:37:56;3.88;;;2.00;;
74320;SDS011;62738;45.772;4.804;2023-08-12T03:40:23;5.30;;;2.28;;
74320;SDS011;62738;45.772;4.804;2023-08-12T03:42:49;7.18;;;2.22;;
74320;SDS011;62738;45.772;4.804;2023-08-12T03:45:16;3.78;;;2.20;;
74320;SDS011;62738;45.772;4.804;2023-08-12T03:47:43;5.20;;;2.05;;
74320;SDS011;62738;45.772;4.804;2023-08-12T03:50:09;6.97;;;2.50;;
74320;SDS011;62738;45.772;4.804;2023-08-12T03:52:36;11.05;;;2.15;;
74320;SDS011;62738;45.772;4.804;2023-08-12T03:55:03;3.28;;;1.80;;
74320;SDS011;62738;45.772;4.804;2023-08-12T03:57:30;6.78;;;2.10;;
74320;SDS011;62738;45.772;4.804;2023-08-12T03:59:57;4.90;;;1.95;;
74320;SDS011;62738;45.772;4.804;2023-08-12T04:02:24;7.63;;;2.65;;
74320;SDS011;62738;45.772;4.804;2023-08-12T04:04:51;7.25;;;2.58;;
74320;SDS011;62738;45.772;4.804;2023-08-12T04:07:17;5.30;;;2.10;;
74320;SDS011;62738;45.772;4.804;2023-08-12T04:09:44;4.10;;;1.95;;
74320;SDS011;62738;45.772;4.804;2023-08-12T04:12:11;6.60;;;2.40;;
74320;SDS011;62738;45.772;4.804;2023-08-12T04:14:37;3.80;;;2.17;;
74320;SDS011;62738;45.772;4.804;2023-08-12T04:17:04;6.20;;;2.40;;
74320;SDS011;62738;45.772;4.804;2023-08-12T04:19:31;4.70;;;2.03;;
74320;SDS011;62738;45.772;4.804;2023-08-12T04:21:57;5.25;;;2.20;;
74320;SDS011;62738;45.772;4.804;2023-08-12T04:24:24;4.30;;;2.22;;
74320;SDS011;62738;45.772;4.804;2023-08-12T04:26:50;6.22;;;1.98;;
74320;SDS011;62738;45.772;4.804;2023-08-12T04:29:17;5.43;;;2.38;;
74320;SDS011;62738;45.772;4.804;2023-08-12T04:31:44;4.60;;;2.10;;
74320;SDS011;62738;45.772;4.804;2023-08-12T04:34:10;4.10;;;2.33;;
74320;SDS011;62738;45.772;4.804;2023-08-12T04:36:37;4.88;;;2.30;;
74320;SDS011;62738;45.772;4.804;2023-08-12T04:39:04;5.10;;;2.40;;
74320;SDS011;62738;45.772;4.804;2023-08-12T04:41:31;6.13;;;2.38;;
74320;SDS011;62738;45.772;4.804;2023-08-12T04:43:57;4.68;;;1.90;;
74320;SDS011;62738;45.772;4.804;2023-08-12T04:46:24;3.75;;;2.22;;
74320;SDS011;62738;45.772;4.804;2023-08-12T04:48:50;6.15;;;2.28;;
74320;SDS011;62738;45.772;4.804;2023-08-12T04:51:17;5.05;;;2.53;;
74320;SDS011;62738;45.772;4.804;2023-08-12T04:53:44;8.32;;;2.40;;
74320;SDS011;62738;45.772;4.804;2023-08-12T04:56:10;4.47;;;2.30;;
74320;SDS011;62738;45.772;4.804;2023-08-12T04:58:37;4.00;;;2.50;;
74320;SDS011;62738;45.772;4.804;2023-08-12T05:01:04;5.00;;;2.47;;
74320;SDS011;62738;45.772;4.804;2023-08-12T05:03:30;4.32;;;2.00;;
74320;SDS011;62738;45.772;4.804;2023-08-12T05:05:57;4.22;;;2.35;;
74320;SDS011;62738;45.772;4.804;2023-08-12T05:08:24;4.57;;;2.00;;
74320;SDS011;62738;45.772;4.804;2023-08-12T05:10:50;4.25;;;2.67;;
74320;SDS011;62738;45.772;4.804;2023-08-12T05:13:17;7.10;;;2.63;;
74320;SDS011;62738;45.772;4.804;2023-08-12T05:15:47;3.85;;;2.13;;
74320;SDS011;62738;45.772;4.804;2023-08-12T05:18:14;4.82;;;2.03;;
74320;SDS011;62738;45.772;4.804;2023-08-12T05:20:41;7.55;;;2.60;;
74320;SDS011;62738;45.772;4.804;2023-08-12T05:23:12;4.75;;;2.30;;
74320;SDS011;62738;45.772;4.804;2023-08-12T05:25:39;4.78;;;2.50;;
74320;SDS011;62738;45.772;4.804;2023-08-12T05:28:06;3.05;;;2.17;;
74320;SDS011;62738;45.772;4.804;2023-08-12T05:30:34;6.20;;;2.40;;
74320;SDS011;62738;45.772;4.804;2023-08-12T05:33:01;5.85;;;2.40;;
74320;SDS011;62738;45.772;4.804;2023-08-12T05:35:32;7.15;;;2.90;;
74320;SDS011;62738;45.772;4.804;2023-08-12T05:38:00;8.73;;;2.97;;
74320;SDS011;62738;45.772;4.804;2023-08-12T05:40:27;5.63;;;3.00;;
74320;SDS011;62738;45.772;4.804;2023-08-12T05:42:54;6.75;;;3.10;;
74320;SDS011;62738;45.772;4.804;2023-08-12T05:45:20;5.43;;;3.15;;
74320;SDS011;62738;45.772;4.804;2023-08-12T05:47:47;7.50;;;2.78;;
74320;SDS011;62738;45.772;4.804;2023-08-12T05:50:14;5.70;;;2.80;;
74320;SDS011;62738;45.772;4.804;2023-08-12T05:52:40;6.25;;;3.33;;
74320;SDS011;62738;45.772;4.804;2023-08-12T05:55:07;9.23;;;3.40;;
74320;SDS011;62738;45.772;4.804;2023-08-12T05:57:34;8.70;;;3.33;;
74320;SDS011;62738;45.772;4.804;2023-08-12T06:00:00;6.30;;;3.00;;
74320;SDS011;62738;45.772;4.804;2023-08-12T06:02:27;5.53;;;2.92;;
74320;SDS011;62738;45.772;4.804;2023-08-12T06:04:54;4.63;;;2.75;;
74320;SDS011;62738;45.772;4.804;2023-08-12T06:07:20;4.57;;;2.88;;
74320;SDS011;62738;45.772;4.804;2023-08-12T06:09:47;4.28;;;2.80;;
74320;SDS011;62738;45.772;4.804;2023-08-12T06:12:14;4.25;;;2.67;;
74320;SDS011;62738;45.772;4.804;2023-08-12T06:14:41;6.28;;;2.60;;
74320;SDS011;62738;45.772;4.804;2023-08-12T06:17:07;5.95;;;3.03;;
74320;SDS011;62738;45.772;4.804;2023-08-12T06:19:34;7.45;;;2.88;;
74320;SDS011;62738;45.772;4.804;2023-08-12T06:22:00;5.45;;;3.00;;
74320;SDS011;62738;45.772;4.804;2023-08-12T06:24:27;5.40;;;2.83;;
74320;SDS011;62738;45.772;4.804;2023-08-12T06:26:54;6.03;;;2.80;;
74320;SDS011;62738;45.772;4.804;2023-08-12T06:29:20;5.32;;;2.33;;
74320;SDS011;62738;45.772;4.804;2023-08-12T06:31:47;5.85;;;2.70;;
74320;SDS011;62738;45.772;4.804;2023-08-12T06:34:14;3.72;;;2.42;;
74320;SDS011;62738;45.772;4.804;2023-08-12T06:36:41;4.20;;;2.50;;
74320;SDS011;62738;45.772;4.804;2023-08-12T06:39:07;7.10;;;2.80;;
74320;SDS011;62738;45.772;4.804;2023-08-12T06:41:34;7.18;;;2.70;;
74320;SDS011;62738;45.772;4.804;2023-08-12T06:44:00;4.25;;;2.58;;
74320;SDS011;62738;45.772;4.804;2023-08-12T06:46:27;5.13;;;2.65;;
74320;SDS011;62738;45.772;4.804;2023-08-12T06:48:54;4.43;;;2.70;;
74320;SDS011;62738;45.772;4.804;2023-08-12T06:51:21;5.55;;;2.60;;
74320;SDS011;62738;45.772;4.804;2023-08-12T06:53:47;3.47;;;2.53;;
74320;SDS011;62738;45.772;4.804;2023-08-12T06:56:14;4.47;;;2.42;;
74320;SDS011;62738;45.772;4.804;2023-08-12T06:58:41;5.75;;;2.72;;
74320;SDS011;62738;45.772;4.804;2023-08-12T07:01:07;5.82;;;2.92;;
74320;SDS011;62738;45.772;4.804;2023-08-12T07:03:34;5.20;;;2.67;;
74320;SDS011;62738;45.772;4.804;2023-08-12T07:06:01;6.38;;;3.15;;
74320;SDS011;62738;45.772;4.804;2023-08-12T07:08:27;5.10;;;2.60;;
74320;SDS011;62738;45.772;4.804;2023-08-12T07:10:54;6.03;;;2.63;;
74320;SDS011;62738;45.772;4.804;2023-08-12T07:13:21;6.28;;;2.78;;
74320;SDS011;62738;45.772;4.804;2023-08-12T07:15:47;5.43;;;2.78;;
74320;SDS011;62738;45.772;4.804;2023-08-12T07:18:14;4.45;;;2.45;;
74320;SDS011;62738;45.772;4.804;2023-08-12T07:20:42;4.47;;;2.45;;
74320;SDS011;62738;45.772;4.804;2023-08-12T07:23:09;4.45;;;2.60;;
74320;SDS011;62738;45.772;4.804;2023-08-12T07:25:36;7.15;;;2.58;;
74320;SDS011;62738;45.772;4.804;2023-08-12T07:28:03;4.97;;;2.45;;
74320;SDS011;62738;45.772;4.804;2023-08-12T07:30:29;3.45;;;2.20;;
74320;SDS011;62738;45.772;4.804;2023-08-12T07:32:56;6.03;;;2.55;;
74320;SDS011;62738;45.772;4.804;2023-08-12T07:35:23;5.18;;;2.40;;
74320;SDS011;62738;45.772;4.804;2023-08-12T07:37:49;5.60;;;2.70;;
74320;SDS011;62738;45.772;4.804;2023-08-12T07:40:16;3.53;;;2.33;;
74320;SDS011;62738;45.772;4.804;2023-08-12T07:42:43;6.72;;;2.70;;
74320;SDS011;62738;45.772;4.804;2023-08-12T07:45:09;4.15;;;2.45;;
74320;SDS011;62738;45.772;4.804;2023-08-12T07:47:36;5.22;;;2.60;;
74320;SDS011;62738;45.772;4.804;2023-08-12T07:50:06;6.65;;;2.78;;
74320;SDS011;62738;45.772;4.804;2023-08-12T07:52:33;5.80;;;2.70;;
74320;SDS011;62738;45.772;4.804;2023-08-12T07:55:00;5.35;;;2.90;;
74320;SDS011;62738;45.772;4.804;2023-08-12T07:57:27;6.88;;;2.92;;
74320;SDS011;62738;45.772;4.804;2023-08-12T07:59:53;3.80;;;2.45;;
74320;SDS011;62738;45.772;4.804;2023-08-12T08:02:20;4.88;;;2.53;;
74320;SDS011;62738;45.772;4.804;2023-08-12T08:04:47;7.45;;;2.60;;
74320;SDS011;62738;45.772;4.804;2023-08-12T08:07:15;7.97;;;2.58;;
74320;SDS011;62738;45.772;4.804;2023-08-12T08:09:43;5.63;;;2.80;;
74320;SDS011;62738;45.772;4.804;2023-08-12T08:12:10;5.80;;;2.80;;
74320;SDS011;62738;45.772;4.804;2023-08-12T08:14:37;6.70;;;2.42;;
74320;SDS011;62738;45.772;4.804;2023-08-12T08:17:04;3.75;;;2.40;;
74320;SDS011;62738;45.772;4.804;2023-08-12T08:19:31;7.38;;;3.03;;
74320;SDS011;62738;45.772;4.804;2023-08-12T08:21:57;5.15;;;2.70;;
74320;SDS011;62738;45.772;4.804;2023-08-12T08:24:24;5.05;;;2.72;;
74320;SDS011;62738;45.772;4.804;2023-08-12T08:26:51;3.65;;;2.33;;
74320;SDS011;62738;45.772;4.804;2023-08-12T08:29:17;3.88;;;2.92;;
74320;SDS011;62738;45.772;4.804;2023-08-12T08:31:44;4.65;;;2.80;;
74320;SDS011;62738;45.772;4.804;2023-08-12T08:34:11;9.80;;;2.95;;
74320;SDS011;62738;45.772;4.804;2023-08-12T08:36:38;7.55;;;2.88;;
74320;SDS011;62738;45.772;4.804;2023-08-12T08:39:04;6.25;;;2.80;;
74320;SDS011;62738;45.772;4.804;2023-08-12T08:41:32;6.65;;;2.78;;
74320;SDS011;62738;45.772;4.804;2023-08-12T08:44:06;6.13;;;2.72;;
74320;SDS011;62738;45.772;4.804;2023-08-12T08:46:34;5.25;;;2.80;;
74320;SDS011;62738;45.772;4.804;2023-08-12T08:49:01;8.52;;;3.28;;
74320;SDS011;62738;45.772;4.804;2023-08-12T08:51:31;5.00;;;2.88;;
74320;SDS011;62738;45.772;4.804;2023-08-12T08:54:04;5.25;;;2.80;;
74320;SDS011;62738;45.772;4.804;2023-08-12T08:56:31;7.30;;;2.63;;
74320;SDS011;62738;45.772;4.804;2023-08-12T08:59:00;5.10;;;2.88;;
74320;SDS011;62738;45.772;4.804;2023-08-12T09:01:27;4.85;;;2.78;;
74320;SDS011;62738;45.772;4.804;2023-08-12T09:03:55;4.38;;;2.53;;
74320;SDS011;62738;45.772;4.804;2023-08-12T09:06:24;4.85;;;3.05;;
74320;SDS011;62738;45.772;4.804;2023-08-12T09:08:51;7.15;;;3.28;;
74320;SDS011;62738;45.772;4.804;2023-08-12T09:11:19;7.90;;;3.33;;
74320;SDS011;62738;45.772;4.804;2023-08-12T09:13:46;6.43;;;3.05;;
74320;SDS011;62738;45.772;4.804;2023-08-12T09:16:14;6.03;;;2.97;;
74320;SDS011;62738;45.772;4.804;2023-08-12T09:18:44;6.05;;;2.45;;
74320;SDS011;62738;45.772;4.804;2023-08-12T09:21:11;5.30;;;2.72;;
74320;SDS011;62738;45.772;4.804;2023-08-12T09:23:38;6.35;;;2.60;;
74320;SDS011;62738;45.772;4.804;2023-08-12T09:26:12;6.95;;;2.88;;
74320;SDS011;62738;45.772;4.804;2023-08-12T09:28:43;6.22;;;2.97;;
74320;SDS011;62738;45.772;4.804;2023-08-12T09:31:26;8.23;;;2.90;;
74320;SDS011;62738;45.772;4.804;2023-08-12T09:33:58;4.20;;;2.90;;
74320;SDS011;62738;45.772;4.804;2023-08-12T09:36:29;7.65;;;2.97;;
74320;SDS011;62738;45.772;4.804;2023-08-12T09:38:57;6.15;;;2.90;;
74320;SDS011;62738;45.772;4.804;2023-08-12T09:41:27;8.55;;;3.20;;
74320;SDS011;62738;45.772;4.804;2023-08-12T09:43:55;10.50;;;3.20;;
74320;SDS011;62738;45.772;4.804;2023-08-12T09:46:23;8.30;;;2.50;;
74320;SDS011;62738;45.772;4.804;2023-08-12T09:48:50;7.35;;;3.00;;
74320;SDS011;62738;45.772;4.804;2023-08-12T09:51:21;5.88;;;2.97;;
74320;SDS011;62738;45.772;4.804;2023-08-12T09:53:48;6.18;;;2.70;;
74320;SDS011;62738;45.772;4.804;2023-08-12T09:56:17;6.55;;;3.15;;
74320;SDS011;62738;45.772;4.804;2023-08-12T09:58:48;8.10;;;2.95;;
74320;SDS011;62738;45.772;4.804;2023-08-12T10:01:18;6.03;;;2.78;;
74320;SDS011;62738;45.772;4.804;2023-08-12T10:03:48;6.13;;;2.85;;
74320;SDS011;62738;45.772;4.804;2023-08-12T10:06:15;5.53;;;2.75;;
74320;SDS011;62738;45.772;4.804;2023-08-12T10:08:45;9.60;;;3.05;;
74320;SDS011;62738;45.772;4.804;2023-08-12T10:11:13;5.78;;;3.08;;
74320;SDS011;62738;45.772;4.804;2023-08-12T10:13:40;6.35;;;2.88;;
74320;SDS011;62738;45.772;4.804;2023-08-12T10:16:07;4.68;;;2.70;;
74320;SDS011;62738;45.772;4.804;2023-08-12T10:18:36;5.70;;;2.85;;
74320;SDS011;62738;45.772;4.804;2023-08-12T10:21:05;6.40;;;3.15;;
74320;SDS011;62738;45.772;4.804;2023-08-12T10:23:35;7.35;;;3.40;;
74320;SDS011;62738;45.772;4.804;2023-08-12T10:26:02;8.63;;;3.25;;
74320;SDS011;62738;45.772;4.804;2023-08-12T10:28:31;7.18;;;3.30;;
74320;SDS011;62738;45.772;4.804;2023-08-12T10:31:06;6.43;;;2.92;;
74320;SDS011;62738;45.772;4.804;2023-08-12T10:33:40;5.50;;;3.00;;
74320;SDS011;62738;45.772;4.804;2023-08-12T10:36:08;9.73;;;2.90;;
74320;SDS011;62738;45.772;4.804;2023-08-12T10:38:35;8.02;;;3.20;;
74320;SDS011;62738;45.772;4.804;2023-08-12T10:41:15;5.65;;;2.97;;
74320;SDS011;62738;45.772;4.804;2023-08-12T10:46:36;5.78;;;2.97;;
74320;SDS011;62738;45.772;4.804;2023-08-12T10:49:07;6.10;;;3.30;;
74320;SDS011;62738;45.772;4.804;2023-08-12T10:51:48;7.80;;;3.25;;
74320;SDS011;62738;45.772;4.804;2023-08-12T10:54:16;6.70;;;3.30;;
74320;SDS011;62738;45.772;4.804;2023-08-12T10:57:07;8.50;;;3.42;;
74320;SDS011;62738;45.772;4.804;2023-08-12T11:02:44;6.82;;;2.92;;
74320;SDS011;62738;45.772;4.804;2023-08-12T11:05:10;8.35;;;2.90;;
74320;SDS011;62738;45.772;4.804;2023-08-12T11:07:47;8.57;;;3.05;;
74320;SDS011;62738;45.772;4.804;2023-08-12T11:10:23;8.90;;;3.33;;
74320;SDS011;62738;45.772;4.804;2023-08-12T11:15:19;8.73;;;3.05;;
74320;SDS011;62738;45.772;4.804;2023-08-12T11:17:56;6.68;;;3.10;;
74320;SDS011;62738;45.772;4.804;2023-08-12T11:20:22;6.25;;;2.80;;
74320;SDS011;62738;45.772;4.804;2023-08-12T11:22:49;6.43;;;3.08;;
74320;SDS011;62738;45.772;4.804;2023-08-12T11:25:17;6.72;;;2.97;;
74320;SDS011;62738;45.772;4.804;2023-08-12T11:27:47;5.97;;;3.25;;
74320;SDS011;62738;45.772;4.804;2023-08-12T11:30:15;7.05;;;3.08;;
74320;SDS011;62738;45.772;4.804;2023-08-12T11:32:43;7.47;;;3.20;;
74320;SDS011;62738;45.772;4.804;2023-08-12T11:35:15;4.43;;;2.65;;
74320;SDS011;62738;45.772;4.804;2023-08-12T11:37:44;6.18;;;3.00;;
74320;SDS011;62738;45.772;4.804;2023-08-12T11:40:14;6.57;;;3.25;;
74320;SDS011;62738;45.772;4.804;2023-08-12T11:42:43;6.25;;;2.58;;
74320;SDS011;62738;45.772;4.804;2023-08-12T11:45:14;3.70;;;2.45;;
74320;SDS011;62738;45.772;4.804;2023-08-12T11:47:43;6.00;;;2.72;;
74320;SDS011;62738;45.772;4.804;2023-08-12T11:50:11;7.80;;;2.97;;
74320;SDS011;62738;45.772;4.804;2023-08-12T11:52:39;7.30;;;2.70;;
74320;SDS011;62738;45.772;4.804;2023-08-12T11:55:06;6.05;;;2.85;;
74320;SDS011;62738;45.772;4.804;2023-08-12T11:57:33;5.75;;;2.70;;
74320;SDS011;62738;45.772;4.804;2023-08-12T12:00:05;4.80;;;2.75;;
74320;SDS011;62738;45.772;4.804;2023-08-12T12:02:50;10.15;;;3.33;;
74320;SDS011;62738;45.772;4.804;2023-08-12T12:05:20;6.30;;;3.20;;
74320;SDS011;62738;45.772;4.804;2023-08-12T12:07:50;8.27;;;3.33;;
74320;SDS011;62738;45.772;4.804;2023-08-12T12:10:28;6.57;;;3.10;;
74320;SDS011;62738;45.772;4.804;2023-08-12T12:13:01;7.70;;;2.90;;
74320;SDS011;62738;45.772;4.804;2023-08-12T12:15:29;5.15;;;2.90;;
74320;SDS011;62738;45.772;4.804;2023-08-12T12:17:56;6.10;;;2.80;;
74320;SDS011;62738;45.772;4.804;2023-08-12T12:20:23;8.10;;;2.97;;
74320;SDS011;62738;45.772;4.804;2023-08-12T12:22:50;5.97;;;3.00;;
74320;SDS011;62738;45.772;4.804;2023-08-12T12:25:17;6.70;;;2.80;;
74320;SDS011;62738;45.772;4.804;2023-08-12T12:27:47;5.38;;;2.90;;
74320;SDS011;62738;45.772;4.804;2023-08-12T12:30:14;4.88;;;2.72;;
74320;SDS011;62738;45.772;4.804;2023-08-12T12:32:42;4.63;;;2.70;;
74320;SDS011;62738;45.772;4.804;2023-08-12T12:35:09;8.32;;;2.95;;
74320;SDS011;62738;45.772;4.804;2023-08-12T12:37:36;4.82;;;2.67;;
74320;SDS011;62738;45.772;4.804;2023-08-12T12:40:03;6.20;;;2.83;;
74320;SDS011;62738;45.772;4.804;2023-08-12T12:42:31;6.18;;;2.78;;
74320;SDS011;62738;45.772;4.804;2023-08-12T12:44:58;4.55;;;2.20;;
74320;SDS011;62738;45.772;4.804;2023-08-12T12:47:25;5.38;;;2.40;;
74320;SDS011;62738;45.772;4.804;2023-08-12T12:49:52;6.50;;;2.58;;
74320;SDS011;62738;45.772;4.804;2023-08-12T12:52:18;6.60;;;2.20;;
74320;SDS011;62738;45.772;4.804;2023-08-12T12:54:45;4.75;;;2.03;;
74320;SDS011;62738;45.772;4.804;2023-08-12T12:57:11;5.22;;;2.22;;
74320;SDS011;62738;45.772;4.804;2023-08-12T12:59:38;5.07;;;2.10;;
74320;SDS011;62738;45.772;4.804;2023-08-12T13:02:05;7.40;;;2.25;;
74320;SDS011;62738;45.772;4.804;2023-08-12T13:04:31;8.18;;;2.50;;
74320;SDS011;62738;45.772;4.804;2023-08-12T13:06:58;6.18;;;2.05;;
74320;SDS011;62738;45.772;4.804;2023-08-12T13:09:25;3.67;;;2.10;;
74320;SDS011;62738;45.772;4.804;2023-08-12T13:11:51;3.88;;;2.45;;
74320;SDS011;62738;45.772;4.804;2023-08-12T13:14:18;6.82;;;2.17;;
74320;SDS011;62738;45.772;4.804;2023-08-12T13:16:47;5.10;;;2.22;;
74320;SDS011;62738;45.772;4.804;2023-08-12T13:19:14;5.25;;;2.50;;
74320;SDS011;62738;45.772;4.804;2023-08-12T13:21:41;5.70;;;2.75;;
74320;SDS011;62738;45.772;4.804;2023-08-12T13:24:08;6.47;;;2.33;;
74320;SDS011;62738;45.772;4.804;2023-08-12T13:26:34;5.32;;;2.47;;
74320;SDS011;62738;45.772;4.804;2023-08-12T13:29:01;5.65;;;2.95;;
74320;SDS011;62738;45.772;4.804;2023-08-12T13:31:28;5.28;;;2.55;;
74320;SDS011;62738;45.772;4.804;2023-08-12T13:33:54;7.30;;;2.92;;
74320;SDS011;62738;45.772;4.804;2023-08-12T13:36:21;6.47;;;2.90;;
74320;SDS011;62738;45.772;4.804;2023-08-12T13:38:48;6.72;;;2.70;;
74320;SDS011;62738;45.772;4.804;2023-08-12T13:41:15;6.72;;;3.30;;
74320;SDS011;62738;45.772;4.804;2023-08-12T13:43:42;7.03;;;2.92;;
74320;SDS011;62738;45.772;4.804;2023-08-12T13:46:09;5.63;;;2.70;;
74320;SDS011;62738;45.772;4.804;2023-08-12T13:48:36;5.55;;;2.70;;
74320;SDS011;62738;45.772;4.804;2023-08-12T13:51:02;5.35;;;2.90;;
74320;SDS011;62738;45.772;4.804;2023-08-12T13:53:29;7.15;;;2.90;;
74320;SDS011;62738;45.772;4.804;2023-08-12T13:55:56;4.95;;;2.60;;
74320;SDS011;62738;45.772;4.804;2023-08-12T13:58:22;6.80;;;2.83;;
74320;SDS011;62738;45.772;4.804;2023-08-12T14:00:49;7.07;;;3.00;;
74320;SDS011;62738;45.772;4.804;2023-08-12T14:03:16;6.63;;;3.10;;
74320;SDS011;62738;45.772;4.804;2023-08-12T14:05:43;4.60;;;2.60;;
74320;SDS011;62738;45.772;4.804;2023-08-12T14:08:11;8.95;;;3.35;;
74320;SDS011;62738;45.772;4.804;2023-08-12T14:10:37;5.68;;;3.00;;
74320;SDS011;62738;45.772;4.804;2023-08-12T14:13:04;4.78;;;2.90;;
74320;SDS011;62738;45.772;4.804;2023-08-12T14:15:33;5.72;;;3.03;;
74320;SDS011;62738;45.772;4.804;2023-08-12T14:17:59;8.40;;;3.13;;
74320;SDS011;62738;45.772;4.804;2023-08-12T14:20:26;5.20;;;2.60;;
74320;SDS011;62738;45.772;4.804;2023-08-12T14:22:53;7.38;;;3.28;;
74320;SDS011;62738;45.772;4.804;2023-08-12T14:25:20;7.97;;;3.33;;
74320;SDS011;62738;45.772;4.804;2023-08-12T14:27:46;7.80;;;3.08;;
74320;SDS011;62738;45.772;4.804;2023-08-12T14:30:13;8.15;;;3.22;;
74320;SDS011;62738;45.772;4.804;2023-08-12T14:32:40;10.40;;;3.15;;
74320;SDS011;62738;45.772;4.804;2023-08-12T14:35:07;7.38;;;3.10;;
74320;SDS011;62738;45.772;4.804;2023-08-12T14:37:33;5.18;;;3.00;;
74320;SDS011;62738;45.772;4.804;2023-08-12T14:40:00;7.18;;;3.03;;
74320;SDS011;62738;45.772;4.804;2023-08-12T14:42:27;5.28;;;3.13;;
74320;SDS011;62738;45.772;4.804;2023-08-12T14:44:54;9.07;;;3.17;;
74320;SDS011;62738;45.772;4.804;2023-08-12T14:47:21;7.28;;;3.40;;
74320;SDS011;62738;45.772;4.804;2023-08-12T14:49:47;4.63;;;2.75;;
74320;SDS011;62738;45.772;4.804;2023-08-12T14:52:17;7.85;;;3.13;;
74320;SDS011;62738;45.772;4.804;2023-08-12T14:54:45;9.55;;;3.25;;
74320;SDS011;62738;45.772;4.804;2023-08-12T14:57:13;7.10;;;3.10;;
74320;SDS011;62738;45.772;4.804;2023-08-12T14:59:40;6.43;;;3.35;;
74320;SDS011;62738;45.772;4.804;2023-08-12T15:02:07;9.95;;;2.85;;
74320;SDS011;62738;45.772;4.804;2023-08-12T15:04:33;6.18;;;3.20;;
74320;SDS011;62738;45.772;4.804;2023-08-12T15:07:00;6.47;;;3.20;;
74320;SDS011;62738;45.772;4.804;2023-08-12T15:09:27;6.15;;;3.25;;
74320;SDS011;62738;45.772;4.804;2023-08-12T15:11:54;9.68;;;3.25;;
74320;SDS011;62738;45.772;4.804;2023-08-12T15:14:21;5.93;;;2.95;;
74320;SDS011;62738;45.772;4.804;2023-08-12T15:16:47;8.30;;;3.80;;
74320;SDS011;62738;45.772;4.804;2023-08-12T15:19:14;6.97;;;3.33;;
74320;SDS011;62738;45.772;4.804;2023-08-12T15:21:41;5.78;;;3.08;;
74320;SDS011;62738;45.772;4.804;2023-08-12T15:24:07;6.75;;;3.30;;
74320;SDS011;62738;45.772;4.804;2023-08-12T15:26:34;7.45;;;3.10;;
74320;SDS011;62738;45.772;4.804;2023-08-12T15:29:01;6.25;;;2.97;;
74320;SDS011;62738;45.772;4.804;2023-08-12T15:31:27;6.47;;;3.20;;
74320;SDS011;62738;45.772;4.804;2023-08-12T15:33:54;8.50;;;3.30;;
74320;SDS011;62738;45.772;4.804;2023-08-12T15:36:21;9.35;;;3.13;;
74320;SDS011;62738;45.772;4.804;2023-08-12T15:38:48;6.43;;;3.10;;
74320;SDS011;62738;45.772;4.804;2023-08-12T15:41:15;6.78;;;3.08;;
74320;SDS011;62738;45.772;4.804;2023-08-12T15:43:42;8.63;;;3.30;;
74320;SDS011;62738;45.772;4.804;2023-08-12T15:46:09;7.53;;;3.60;;
74320;SDS011;62738;45.772;4.804;2023-08-12T15:48:36;6.72;;;3.10;;
74320;SDS011;62738;45.772;4.804;2023-08-12T15:51:03;6.63;;;3.08;;
74320;SDS011;62738;45.772;4.804;2023-08-12T15:53:30;6.30;;;2.88;;
74320;SDS011;62738;45.772;4.804;2023-08-12T15:55:56;6.78;;;3.50;;
74320;SDS011;62738;45.772;4.804;2023-08-12T15:58:23;7.35;;;3.30;;
74320;SDS011;62738;45.772;4.804;2023-08-12T16:00:50;6.40;;;2.92;;
74320;SDS011;62738;45.772;4.804;2023-08-12T16:03:18;7.55;;;3.38;;